Terminal Aerodrome Forecast
Issued by NWS Charleston, WV

Current Version | Previous Version | Graphics & Text | Print | Product List | Glossary On
Versions: 1 2 3 4 5 6 7 8 9 10 11 12 13 14 15 16 17 18 19 20 21 22 23
000
FTUS41 KRLX 261120
TAFHTS
TAF
KHTS 261120Z 2612/2712 00000KT P6SM FEW150
     FM261500 22005KT P6SM BKN060
     FM261700 25008KT P6SM VCTS BKN040CB
      TEMPO 2619/2621 4SM SHRA OVC025
     FM262100 31011KT P6SM OVC035
     FM262200 30009KT P6SM BKN025
     FM270000 27008KT P6SM BKN050
     FM270300 VRB03KT P6SM FEW250=

USA.gov is the U.S. government's official web portal to all federal, state and local government web resources and services.